Time;durP1;ratioP1;P1;durP2;ratioP2;P2;SDS_P1;SDS_P2;PMS_P1;PMS_P2;Temp;Humidity;BMP_temperature;BMP_pressure;BME280_temperature;BME280_humidity;BME280_pressure;Samples;Min_cycle;Max_cycle;Signal;HPM_P1;HPM_P2
2022/11/07 08:00:19;;;;;;;10.73;5.43;;;11.90;61.80;;;;;;5943267;23;20413;-47
2022/11/07 08:02:44;;;;;;;7.70;4.33;;;12.00;31.20;;;;;;4956662;28;20476;-47
2022/11/07 08:05:12;;;;;;;8.90;4.47;;;12.00;22.20;;;;;;4955274;28;20188;-47
2022/11/07 08:07:50;;;;;;;13.10;4.50;;;12.00;16.90;;;;;;4954741;28;20198;-47
2022/11/07 08:10:17;;;;;;;9.17;4.10;;;12.00;12.20;;;;;;4954996;28;20468;-47
2022/11/07 08:12:44;;;;;;;8.10;4.30;;;12.00;10.50;;;;;;4955366;28;20461;-47
2022/11/07 08:15:11;;;;;;;7.60;4.60;;;12.00;11.70;;;;;;4954459;28;20826;-47
2022/11/07 08:17:36;;;;;;;12.27;4.63;;;12.10;6.80;;;;;;4955631;28;20919;-47
2022/11/07 08:20:02;;;;;;;12.30;4.80;;;12.10;3.30;;;;;;4955321;28;20528;-47
2022/11/07 08:22:28;;;;;;;8.77;4.33;;;12.20;2.00;;;;;;4955201;28;20170;-47
2022/11/07 08:24:53;;;;;;;16.27;4.93;;;12.30;1.00;;;;;;4955542;28;20695;-47
2022/11/07 08:27:19;;;;;;;9.63;4.37;;;12.20;1.00;;;;;;4953935;28;20212;-47
2022/11/07 08:29:44;;;;;;;10.17;4.47;;;12.20;1.00;;;;;;4955477;28;20193;-47
2022/11/07 08:32:11;;;;;;;10.60;4.60;;;12.30;1.00;;;;;;4955021;28;20221;-47
2022/11/07 08:34:37;;;;;;;8.70;3.90;;;12.30;1.00;;;;;;4955635;28;20249;-47
2022/11/07 08:37:03;;;;;;;8.00;4.10;;;12.30;1.00;;;;;;4955132;28;20516;-48
2022/11/07 08:39:29;;;;;;;8.80;4.47;;;12.30;1.00;;;;;;4955162;28;20548;-47
2022/11/07 08:41:54;;;;;;;13.87;4.70;;;12.40;1.00;;;;;;4954390;28;20197;-47
2022/11/07 08:44:20;;;;;;;7.00;3.70;;;12.40;1.00;;;;;;4954690;28;20628;-47
2022/11/07 08:46:45;;;;;;;12.43;4.23;;;12.50;1.00;;;;;;4955012;28;20178;-51
2022/11/07 08:49:11;;;;;;;6.80;4.20;;;12.50;1.00;;;;;;4954977;28;20305;-48
2022/11/07 08:51:37;;;;;;;7.20;4.30;;;12.50;1.00;;;;;;4954604;28;20201;-47
2022/11/07 08:54:02;;;;;;;9.87;4.43;;;12.50;1.00;;;;;;4955897;28;20272;-47
2022/11/07 08:56:29;;;;;;;9.90;4.10;;;12.60;1.00;;;;;;4953383;28;20644;-47
2022/11/07 08:58:55;;;;;;;13.23;4.73;;;12.60;1.00;;;;;;4954265;28;20182;-47
2022/11/07 09:01:20;;;;;;;10.30;4.50;;;12.60;1.00;;;;;;4954179;28;20844;-48
2022/11/07 09:03:46;;;;;;;5.53;4.20;;;12.70;1.00;;;;;;4945876;28;20645;-48
2022/11/07 09:06:11;;;;;;;6.57;4.20;;;12.80;1.00;;;;;;4942263;29;20640;-47
2022/11/07 09:08:37;;;;;;;10.37;4.40;;;13.00;1.00;;;;;;4954438;28;20184;-48
2022/11/07 09:11:04;;;;;;;11.67;4.60;;;13.10;1.00;;;;;;4954328;28;20210;-47
2022/11/07 09:13:31;;;;;;;7.27;4.40;;;13.20;1.00;;;;;;4954265;28;20594;-46
2022/11/07 09:15:58;;;;;;;8.70;4.40;;;13.20;1.00;;;;;;4954128;28;20429;-46
2022/11/07 09:18:25;;;;;;;7.77;4.37;;;13.20;1.00;;;;;;4947205;28;20429;-47
2022/11/07 09:20:50;;;;;;;12.13;5.20;;;13.30;1.00;;;;;;4940819;28;20481;-47
2022/11/07 09:23:16;;;;;;;11.20;4.43;;;13.40;1.00;;;;;;4941245;29;20440;-48
2022/11/07 09:25:42;;;;;;;8.43;4.43;;;13.60;1.00;;;;;;4961852;28;20932;-47
2022/11/07 09:28:07;;;;;;;16.20;4.40;;;13.60;1.00;;;;;;4954387;28;20605;-47
2022/11/07 09:30:33;;;;;;;9.67;4.20;;;13.60;1.00;;;;;;4954081;29;20267;-46
2022/11/07 09:32:59;;;;;;;10.50;4.00;;;13.50;1.00;;;;;;4954416;28;20196;-47
2022/11/07 09:35:25;;;;;;;10.70;5.10;;;13.40;1.00;;;;;;4952392;29;20196;-47
2022/11/07 09:37:51;;;;;;;8.80;4.37;;;13.40;1.00;;;;;;4953802;28;20524;-47
2022/11/07 09:40:39;;;;;;;12.30;4.10;;;13.50;1.00;;;;;;4953940;28;21041;-47
2022/11/07 09:43:22;;;;;;;13.03;5.10;;;13.80;1.00;;;;;;4935011;29;20815;-48
2022/11/07 09:46:12;;;;;;;14.47;4.70;;;14.00;1.00;;;;;;4934819;29;20465;-47
2022/11/07 09:48:44;;;;;;;6.77;3.70;;;14.30;1.00;;;;;;4933374;29;20465;-47
2022/11/07 09:51:19;;;;;;;7.77;3.57;;;14.40;1.00;;;;;;4934534;29;20457;-47
2022/11/07 09:53:51;;;;;;;8.60;3.67;;;14.50;1.00;;;;;;4934492;29;20464;-47
2022/11/07 09:56:17;;;;;;;12.47;3.57;;;14.60;1.00;;;;;;4934214;29;20418;-47
2022/11/07 09:58:50;;;;;;;8.20;4.37;;;14.70;1.00;;;;;;4934276;29;20419;-47
2022/11/07 10:01:18;;;;;;;14.27;4.03;;;14.50;1.00;;;;;;4934274;29;20238;-47
2022/11/07 10:03:44;;;;;;;14.93;4.07;;;14.30;1.00;;;;;;4934381;29;20437;-47
2022/11/07 10:06:38;;;;;;;7.73;3.60;;;14.30;1.00;;;;;;4934270;29;20442;-46
2022/11/07 10:09:15;;;;;;;15.00;4.63;;;14.30;1.00;;;;;;4934222;29;20429;-47
2022/11/07 10:11:57;;;;;;;11.90;4.33;;;14.40;1.00;;;;;;4934207;29;20756;-47
2022/11/07 10:14:43;;;;;;;12.23;4.57;;;14.50;1.00;;;;;;4934283;29;20429;-47
2022/11/07 10:17:09;;;;;;;8.87;4.70;;;14.40;1.00;;;;;;4935688;29;21002;-47
2022/11/07 10:19:51;;;;;;;13.00;4.10;;;14.20;1.00;;;;;;4953102;28;20520;-46
2022/11/07 10:22:31;;;;;;;9.67;4.40;;;14.10;1.00;;;;;;4953244;28;20559;-47
2022/11/07 10:25:18;;;;;;;12.63;4.70;;;14.00;1.00;;;;;;4953082;28;20880;-53
2022/11/07 10:28:06;;;;;;;12.93;5.13;;;13.90;1.00;;;;;;4953158;28;20724;-47
2022/11/07 10:30:32;;;;;;;14.17;5.60;;;13.70;1.00;;;;;;4952949;28;20430;-47
2022/11/07 10:33:12;;;;;;;9.57;5.17;;;13.50;1.00;;;;;;4951800;28;20444;-46
2022/11/07 10:35:42;;;;;;;9.90;5.00;;;13.50;1.00;;;;;;4953120;28;20412;-47
2022/11/07 10:38:29;;;;;;;12.47;4.83;;;13.40;1.00;;;;;;4953096;28;20413;-47
2022/11/07 10:40:55;;;;;;;10.17;5.10;;;13.40;1.00;;;;;;4952726;28;20547;-48
2022/11/07 10:43:43;;;;;;;9.67;5.20;;;13.50;1.00;;;;;;4952909;28;20433;-47
2022/11/07 10:46:24;;;;;;;9.80;4.80;;;13.60;1.00;;;;;;4952793;28;20418;-48
2022/11/07 10:48:52;;;;;;;13.83;5.90;;;13.60;1.00;;;;;;4952993;28;20505;-48
2022/11/07 10:51:18;;;;;;;11.57;5.30;;;13.60;1.00;;;;;;4953042;28;20501;-47
2022/11/07 10:53:44;;;;;;;10.30;4.63;;;13.70;1.00;;;;;;4952868;28;20630;-46
2022/11/07 10:56:12;;;;;;;11.33;4.43;;;13.80;1.00;;;;;;4952683;28;20181;-47
2022/11/07 10:58:44;;;;;;;8.30;4.90;;;13.80;1.00;;;;;;4952729;28;20484;-47
2022/11/07 11:01:10;;;;;;;14.37;5.10;;;13.80;1.00;;;;;;4952738;28;20600;-51
2022/11/07 11:03:44;;;;;;;13.03;4.90;;;13.80;1.00;;;;;;4951320;28;20465;-47
2022/11/07 11:06:16;;;;;;;9.30;4.50;;;13.90;1.00;;;;;;4953017;28;20401;-47
2022/11/07 11:08:42;;;;;;;7.50;4.70;;;13.90;1.00;;;;;;4952675;28;20457;-47
2022/11/07 11:11:19;;;;;;;10.43;4.40;;;13.90;1.00;;;;;;4952565;28;20460;-47
2022/11/07 11:13:45;;;;;;;13.37;5.30;;;13.90;1.00;;;;;;4952614;28;20288;-48
2022/11/07 11:16:29;;;;;;;8.50;4.20;;;14.00;1.00;;;;;;4952484;28;20505;-46
2022/11/07 11:18:58;;;;;;;14.40;4.73;;;13.90;1.00;;;;;;4954019;28;20420;-46
2022/11/07 11:21:24;;;;;;;10.10;4.50;;;14.00;1.00;;;;;;4956335;28;20418;-47
2022/11/07 11:23:50;;;;;;;12.50;4.83;;;13.90;1.00;;;;;;4956193;28;20770;-47
2022/11/07 11:26:34;;;;;;;10.27;4.47;;;13.90;1.00;;;;;;4956296;28;20406;-47
2022/11/07 11:29:08;;;;;;;12.23;4.43;;;13.80;1.00;;;;;;4956309;28;20899;-47
2022/11/07 11:31:51;;;;;;;12.13;4.60;;;13.80;1.00;;;;;;4956216;28;20452;-47
2022/11/07 11:34:35;;;;;;;10.90;4.90;;;13.80;1.00;;;;;;4956104;28;20420;-47
2022/11/07 11:37:15;;;;;;;6.63;4.73;;;13.80;1.00;;;;;;4956056;28;20516;-47
2022/11/07 11:40:13;;;;;;;8.00;4.50;;;13.80;1.00;;;;;;4955717;28;21033;-47
2022/11/07 11:43:01;;;;;;;14.97;5.30;;;13.70;1.00;;;;;;4951483;29;20427;-47
2022/11/07 11:45:39;;;;;;;9.57;5.33;;;13.80;1.00;;;;;;4955827;28;20429;-46
2022/11/07 11:48:14;;;;;;;9.17;4.57;;;13.70;1.00;;;;;;4955785;28;20417;-47
2022/11/07 11:50:48;;;;;;;11.17;4.50;;;13.70;1.00;;;;;;4955961;28;20437;-47
2022/11/07 11:53:17;;;;;;;23.57;5.77;;;13.70;1.00;;;;;;4955716;28;20752;-47
2022/11/07 11:56:13;;;;;;;17.57;5.47;;;13.80;1.00;;;;;;4955769;28;20504;-47
2022/11/07 11:58:42;;;;;;;9.43;5.20;;;13.80;1.00;;;;;;4955936;28;20396;-47
2022/11/07 12:01:32;;;;;;;8.93;5.20;;;13.90;1.00;;;;;;4955359;28;20525;-46
2022/11/07 12:04:18;;;;;;;13.00;5.40;;;13.90;1.00;;;;;;4955242;28;20449;-47
2022/11/07 12:06:45;;;;;;;9.10;4.80;;;14.00;1.00;;;;;;4940014;28;20456;-47
2022/11/07 12:09:32;;;;;;;11.60;4.63;;;14.00;1.00;;;;;;4954311;28;20449;-47
2022/11/07 12:12:11;;;;;;;9.97;5.23;;;13.90;1.00;;;;;;4955601;28;20437;-49
2022/11/07 12:14:56;;;;;;;14.70;4.90;;;13.90;1.00;;;;;;4954854;28;20472;-47
2022/11/07 12:17:24;;;;;;;13.67;4.50;;;13.90;1.00;;;;;;4954078;29;20432;-47
2022/11/07 12:20:30;;;;;;;10.47;5.20;;;13.80;1.00;;;;;;4954856;28;20985;-47
2022/11/07 12:23:11;;;;;;;10.93;4.50;;;13.70;1.00;;;;;;4952654;29;20446;-47
2022/11/07 12:26:06;;;;;;;15.47;5.60;;;13.70;1.00;;;;;;4938226;29;20430;-47
2022/11/07 12:28:45;;;;;;;18.13;5.60;;;13.60;1.00;;;;;;4936742;29;20441;-47
2022/11/07 12:31:28;;;;;;;11.67;5.10;;;13.70;1.00;;;;;;4934802;29;20422;-48
2022/11/07 12:34:11;;;;;;;10.00;5.27;;;13.70;1.00;;;;;;4936088;29;20426;-48
2022/11/07 12:37:02;;;;;;;14.53;6.03;;;13.70;1.00;;;;;;4939068;29;20433;-47
2022/11/07 12:39:54;;;;;;;8.97;4.97;;;13.70;1.00;;;;;;4953742;28;20469;-47
2022/11/07 12:42:31;;;;;;;9.93;5.37;;;13.70;1.00;;;;;;4953585;29;20523;-47
2022/11/07 12:45:36;;;;;;;12.27;5.80;;;13.70;1.00;;;;;;4954753;28;20421;-47
2022/11/07 12:48:06;;;;;;;13.20;4.87;;;13.60;1.00;;;;;;4951122;29;20516;-47
2022/11/07 12:51:16;;;;;;;14.43;6.03;;;13.60;1.00;;;;;;4954346;28;20565;-47
2022/11/07 12:53:53;;;;;;;18.03;5.40;;;13.60;1.00;;;;;;4943084;28;20565;-47
2022/11/07 12:56:26;;;;;;;14.77;5.00;;;13.70;1.00;;;;;;4950649;28;20457;-47
2022/11/07 12:58:52;;;;;;;12.53;5.27;;;13.60;1.00;;;;;;4951825;28;20448;-51
2022/11/07 13:01:25;;;;;;;8.37;4.90;;;13.70;1.00;;;;;;4954216;28;20484;-47
2022/11/07 13:04:15;;;;;;;12.73;4.93;;;13.70;1.00;;;;;;4954285;28;20433;-47
2022/11/07 13:06:57;;;;;;;12.17;5.60;;;13.70;1.00;;;;;;4953568;28;20469;-47
2022/11/07 13:09:34;;;;;;;14.70;5.00;;;13.80;1.00;;;;;;4954212;28;20452;-47
2022/11/07 13:12:19;;;;;;;9.03;4.10;;;13.80;1.00;;;;;;4954091;28;20429;-47
2022/11/07 13:14:46;;;;;;;15.30;5.07;;;13.80;1.00;;;;;;4952334;29;20468;-47
2022/11/07 13:17:22;;;;;;;6.93;4.33;;;14.00;1.00;;;;;;4953151;29;20939;-47
2022/11/07 13:20:02;;;;;;;7.90;4.13;;;14.20;1.00;;;;;;4953979;28;20495;-47
2022/11/07 13:22:35;;;;;;;10.10;4.60;;;14.30;1.00;;;;;;4954110;28;20409;-47
2022/11/07 13:25:00;;;;;;;12.20;4.73;;;14.40;1.00;;;;;;4953978;28;20426;-47
2022/11/07 13:27:36;;;;;;;20.33;5.50;;;14.40;1.00;;;;;;4954206;28;20420;-51
2022/11/07 13:30:28;;;;;;;13.13;4.63;;;14.30;1.00;;;;;;4953948;28;20197;-47
2022/11/07 13:32:55;;;;;;;10.10;4.60;;;14.20;1.00;;;;;;4953300;29;20445;-47
2022/11/07 13:35:28;;;;;;;14.07;4.80;;;14.10;1.00;;;;;;4953712;28;20429;-47
2022/11/07 13:37:58;;;;;;;16.37;4.60;;;14.00;1.00;;;;;;4953976;29;20883;-47
2022/11/07 13:40:36;;;;;;;11.17;4.47;;;13.90;1.00;;;;;;4953486;28;20453;-48
2022/11/07 13:43:11;;;;;;;9.43;4.10;;;13.80;1.00;;;;;;4952437;28;20440;-48
2022/11/07 13:45:58;;;;;;;13.47;4.40;;;13.70;1.00;;;;;;4952801;28;20471;-47
2022/11/07 13:48:46;;;;;;;13.00;4.40;;;13.60;1.00;;;;;;4954392;28;20421;-47
2022/11/07 13:51:27;;;;;;;15.73;4.70;;;13.60;1.00;;;;;;4953557;28;20839;-48
2022/11/07 13:54:26;;;;;;;12.50;4.50;;;13.40;1.00;;;;;;4951977;28;20441;-47
2022/11/07 13:57:18;;;;;;;8.23;4.60;;;13.40;50.50;;;;;;4953234;28;20504;-47
2022/11/07 13:59:58;;;;;;;8.93;4.33;;;13.40;99.90;;;;;;4953650;29;20855;-48
2022/11/07 14:02:32;;;;;;;10.03;4.10;;;13.40;99.90;;;;;;4952511;28;20535;-52
2022/11/07 14:05:04;;;;;;;11.73;4.53;;;13.40;99.90;;;;;;4953092;28;20417;-47
2022/11/07 14:07:36;;;;;;;10.20;4.40;;;13.30;99.90;;;;;;4958114;28;20449;-47
2022/11/07 14:10:05;;;;;;;11.37;4.20;;;13.30;99.90;;;;;;4953313;28;20429;-47
2022/11/07 14:12:35;;;;;;;11.40;5.20;;;13.30;99.90;;;;;;4952459;28;20907;-48
2022/11/07 14:15:01;;;;;;;10.23;4.27;;;13.20;99.90;;;;;;4952304;28;20492;-48
2022/11/07 14:17:33;;;;;;;10.03;4.93;;;13.20;99.90;;;;;;4951899;28;20444;-47
2022/11/07 14:20:14;;;;;;;11.37;4.60;;;13.20;1.00;;;;;;4952972;28;20911;-48
2022/11/07 14:22:54;;;;;;;11.87;4.40;;;13.20;1.00;;;;;;4952138;29;20800;-48
2022/11/07 14:25:32;;;;;;;16.03;4.53;;;13.10;1.00;;;;;;4952706;28;20548;-47
2022/11/07 14:28:00;;;;;;;11.80;5.10;;;13.10;1.00;;;;;;4953319;28;20533;-48
2022/11/07 14:30:29;;;;;;;11.13;4.73;;;13.10;1.00;;;;;;4952100;28;20468;-47
2022/11/07 14:32:57;;;;;;;15.03;4.53;;;13.10;1.00;;;;;;4951849;29;20430;-47
2022/11/07 14:35:30;;;;;;;17.03;4.77;;;13.00;1.00;;;;;;4952842;28;20418;-49
2022/11/07 14:37:57;;;;;;;7.47;4.50;;;13.00;1.00;;;;;;4953027;28;20425;-47
2022/11/07 14:40:23;;;;;;;6.40;4.57;;;13.10;1.00;;;;;;4952263;28;20465;-48
2022/11/07 14:42:51;;;;;;;14.73;5.03;;;13.10;1.00;;;;;;4952895;28;20465;-48
2022/11/07 14:45:19;;;;;;;10.50;4.70;;;13.00;1.00;;;;;;4952183;28;20441;-47
2022/11/07 14:47:47;;;;;;;20.13;6.63;;;13.10;1.00;;;;;;4951421;28;20441;-51
2022/11/07 14:50:23;;;;;;;18.07;4.60;;;13.10;1.00;;;;;;4940041;28;21058;-47
2022/11/07 14:53:03;;;;;;;12.27;5.33;;;13.10;1.00;;;;;;4952080;28;20441;-47
2022/11/07 14:55:36;;;;;;;14.53;4.40;;;13.10;1.00;;;;;;4937818;29;20417;-47
2022/11/07 14:58:03;;;;;;;13.53;4.50;;;13.10;1.00;;;;;;4949575;28;20425;-48
2022/11/07 15:00:29;;;;;;;11.27;4.23;;;13.10;1.00;;;;;;4955020;28;20476;-47
2022/11/07 15:02:57;;;;;;;15.30;4.20;;;13.10;1.00;;;;;;4956300;28;20559;-49
2022/11/07 15:05:27;;;;;;;17.00;4.27;;;13.00;1.00;;;;;;4956264;28;20421;-47
2022/11/07 15:07:54;;;;;;;8.90;3.97;;;13.10;1.00;;;;;;4956326;28;20414;-49
2022/11/07 15:10:28;;;;;;;12.33;5.20;;;13.10;1.00;;;;;;4955475;28;20432;-47
2022/11/07 15:12:59;;;;;;;17.73;6.70;;;13.10;1.00;;;;;;4951784;28;20908;-47
2022/11/07 15:15:30;;;;;;;18.07;4.20;;;13.00;1.00;;;;;;4953105;28;20515;-47
2022/11/07 15:17:58;;;;;;;13.70;4.60;;;13.00;1.00;;;;;;4953872;28;20445;-52
2022/11/07 15:20:30;;;;;;;10.27;4.57;;;13.10;1.00;;;;;;4953241;28;20481;-48
2022/11/07 15:22:59;;;;;;;16.63;5.43;;;13.00;1.00;;;;;;4952953;29;20409;-48
2022/11/07 15:25:33;;;;;;;9.43;4.30;;;13.00;1.00;;;;;;4955835;28;20417;-48
2022/11/07 15:28:22;;;;;;;14.73;4.57;;;13.00;1.00;;;;;;4955080;28;20938;-48
2022/11/07 15:30:50;;;;;;;9.47;4.10;;;13.10;1.00;;;;;;4954903;28;20445;-49
2022/11/07 15:33:17;;;;;;;8.77;4.03;;;13.10;1.00;;;;;;4956067;29;20415;-48
2022/11/07 15:35:45;;;;;;;10.53;4.37;;;13.00;1.00;;;;;;4955243;28;21061;-48
2022/11/07 15:38:17;;;;;;;10.90;3.80;;;13.00;1.00;;;;;;4955925;28;20971;-48
2022/11/07 15:40:43;;;;;;;17.13;4.03;;;13.00;1.00;;;;;;4954500;28;20547;-48
2022/11/07 15:43:09;;;;;;;15.20;4.40;;;12.90;1.00;;;;;;4955815;28;20433;-48
2022/11/07 15:45:35;;;;;;;15.03;4.03;;;12.90;1.00;;;;;;4955594;28;20182;-48
2022/11/07 15:48:00;;;;;;;19.93;7.47;;;12.90;1.00;;;;;;4952247;28;20186;-48
2022/11/07 15:50:26;;;;;;;13.23;4.33;;;12.90;1.00;;;;;;4951434;28;20200;-48
2022/11/07 15:52:53;;;;;;;13.83;4.27;;;12.90;1.00;;;;;;4950803;29;20201;-47
2022/11/07 15:55:20;;;;;;;11.07;3.90;;;12.90;1.00;;;;;;4953681;28;20201;-48
2022/11/07 15:57:48;;;;;;;9.93;3.90;;;12.90;1.00;;;;;;4955247;28;20453;-49
2022/11/07 16:00:16;;;;;;;11.77;4.53;;;13.00;1.00;;;;;;4954696;28;20969;-52
2022/11/07 16:02:42;;;;;;;9.80;4.10;;;13.00;1.00;;;;;;4952995;29;20481;-48
2022/11/07 16:05:08;;;;;;;18.10;4.77;;;13.00;99.90;;;;;;4949155;28;20449;-48
2022/11/07 16:07:34;;;;;;;9.13;4.17;;;13.00;99.90;;;;;;4951270;28;20194;-52
2022/11/07 16:10:00;;;;;;;9.80;4.07;;;13.00;99.90;;;;;;4950461;28;20190;-48
2022/11/07 16:12:26;;;;;;;9.43;4.40;;;13.00;99.90;;;;;;4954870;28;20205;-50
2022/11/07 16:14:54;;;;;;;9.87;3.60;;;13.00;99.90;;;;;;4955381;28;20434;-47
2022/11/07 16:17:20;;;;;;;9.63;3.40;;;13.10;99.90;;;;;;4945240;29;20640;-48
2022/11/07 16:19:46;;;;;;;6.37;3.10;;;13.10;99.90;;;;;;4954038;28;20488;-48
2022/11/07 16:22:13;;;;;;;13.00;3.40;;;13.20;99.90;;;;;;4954709;28;20190;-48
2022/11/07 16:24:38;;;;;;;9.30;3.60;;;13.20;99.90;;;;;;4954426;28;21052;-48
2022/11/07 16:27:04;;;;;;;10.07;3.40;;;13.10;99.90;;;;;;4954611;28;20437;-48
2022/11/07 16:29:30;;;;;;;11.67;3.23;;;13.10;99.90;;;;;;4944362;29;20182;-48
2022/11/07 16:31:56;;;;;;;11.30;3.70;;;13.10;99.90;;;;;;4954146;28;20484;-48
2022/11/07 16:34:22;;;;;;;11.43;3.23;;;13.10;99.90;;;;;;4953618;29;20456;-48
2022/11/07 16:36:47;;;;;;;10.83;3.37;;;13.10;99.90;;;;;;4954087;28;20273;-50
2022/11/07 16:39:20;;;;;;;10.63;3.10;;;13.10;99.90;;;;;;4954279;28;20543;-48
2022/11/07 16:41:46;;;;;;;9.23;3.70;;;13.10;99.90;;;;;;4952080;28;20190;-48
2022/11/07 16:44:12;;;;;;;7.87;3.60;;;13.20;99.90;;;;;;4948793;29;20441;-47
2022/11/07 16:46:39;;;;;;;11.90;3.87;;;13.10;99.90;;;;;;4952230;28;20436;-48
2022/11/07 16:49:25;;;;;;;11.23;3.37;;;13.20;99.90;;;;;;4950840;28;20194;-47
2022/11/07 16:51:50;;;;;;;7.37;3.93;;;13.20;99.90;;;;;;4952700;28;20528;-48
2022/11/07 16:54:16;;;;;;;6.03;3.23;;;13.20;99.90;;;;;;4951775;28;20928;-47
2022/11/07 16:56:42;;;;;;;11.13;3.50;;;13.30;99.90;;;;;;4952364;28;20213;-48
2022/11/07 16:59:16;;;;;;;12.63;3.10;;;13.30;99.90;;;;;;4951352;28;20190;-48
2022/11/07 17:01:41;;;;;;;9.23;3.20;;;13.30;99.90;;;;;;4952624;28;20241;-48
2022/11/07 17:04:07;;;;;;;8.80;3.03;;;13.30;99.90;;;;;;4951985;29;20444;-48
2022/11/07 17:06:34;;;;;;;9.40;3.00;;;13.30;99.90;;;;;;4948569;28;20186;-48
2022/11/07 17:09:02;;;;;;;9.70;3.60;;;13.30;99.90;;;;;;4952823;28;20644;-48
2022/11/07 17:11:28;;;;;;;6.03;3.40;;;13.30;99.90;;;;;;4953885;28;20456;-47
2022/11/07 17:13:53;;;;;;;11.80;3.53;;;13.30;99.90;;;;;;4953699;28;20440;-48
2022/11/07 17:16:20;;;;;;;11.60;3.60;;;13.30;99.90;;;;;;4953274;28;20190;-48
2022/11/07 17:18:47;;;;;;;9.10;3.20;;;13.30;99.90;;;;;;4952439;28;20190;-48
2022/11/07 17:21:23;;;;;;;13.63;3.40;;;13.30;99.90;;;;;;4947817;28;20484;-47
2022/11/07 17:23:50;;;;;;;11.27;3.10;;;13.40;99.90;;;;;;4946960;28;20434;-48
2022/11/07 17:26:19;;;;;;;10.93;3.80;;;13.40;99.90;;;;;;4959937;28;20613;-49
2022/11/07 17:28:45;;;;;;;14.50;3.97;;;13.40;99.90;;;;;;4947092;29;20915;-48
2022/11/07 17:31:11;;;;;;;8.83;4.03;;;13.40;98.60;;;;;;4952560;28;20465;-47
2022/11/07 17:33:37;;;;;;;12.03;4.27;;;13.40;99.90;;;;;;4953799;28;20631;-48
2022/11/07 17:36:04;;;;;;;7.43;3.60;;;13.40;99.90;;;;;;4953931;28;20421;-48
2022/11/07 17:38:30;;;;;;;14.30;4.30;;;13.50;99.90;;;;;;4966030;28;20203;-48
2022/11/07 17:41:15;;;;;;;9.40;3.80;;;13.50;99.60;;;;;;4947101;29;20523;-50
2022/11/07 17:43:44;;;;;;;13.20;4.43;;;13.50;99.90;;;;;;4950771;28;20197;-48
2022/11/07 17:46:24;;;;;;;11.33;4.60;;;13.40;99.90;;;;;;4953307;28;20520;-48
2022/11/07 17:48:53;;;;;;;9.17;4.87;;;13.40;99.90;;;;;;4952935;28;20440;-48
2022/11/07 17:51:21;;;;;;;11.13;4.50;;;13.40;99.90;;;;;;4952048;28;20449;-48
2022/11/07 17:53:47;;;;;;;16.00;5.00;;;13.40;99.90;;;;;;4945623;29;20441;-47
2022/11/07 17:56:18;;;;;;;10.43;4.77;;;13.40;99.90;;;;;;4953181;28;20445;-48
2022/11/07 17:58:45;;;;;;;9.93;5.07;;;13.40;99.90;;;;;;4953564;28;20919;-48
2022/11/07 18:01:19;;;;;;;11.47;5.60;;;13.40;99.90;;;;;;4952299;28;21037;-48
2022/11/07 18:03:46;;;;;;;14.67;6.57;;;13.40;99.90;;;;;;4949584;28;20459;-48
2022/11/07 18:06:12;;;;;;;12.60;6.00;;;13.40;99.90;;;;;;4947132;29;20460;-48
2022/11/07 18:08:44;;;;;;;14.70;6.87;;;13.30;99.90;;;;;;4952810;28;20805;-48
2022/11/07 18:11:12;;;;;;;8.77;6.20;;;13.20;1.00;;;;;;4943651;28;20581;-48
2022/11/07 18:13:38;;;;;;;12.20;6.50;;;13.20;1.00;;;;;;4940708;29;20449;-47
2022/11/07 18:16:07;;;;;;;10.30;6.10;;;13.20;1.00;;;;;;4952028;29;20805;-48
2022/11/07 18:18:33;;;;;;;15.00;6.80;;;13.10;1.00;;;;;;4952614;28;20190;-48
2022/11/07 18:20:59;;;;;;;14.23;6.87;;;13.10;1.00;;;;;;4953131;28;20483;-48
2022/11/07 18:23:24;;;;;;;12.40;6.30;;;13.10;1.00;;;;;;4951659;28;20240;-48
2022/11/07 18:26:07;;;;;;;13.93;7.10;;;13.10;1.00;;;;;;4949639;29;20585;-48
2022/11/07 18:28:35;;;;;;;16.83;6.73;;;13.00;1.00;;;;;;4953285;28;20288;-48
2022/11/07 18:31:01;;;;;;;14.40;6.90;;;13.10;1.00;;;;;;4952702;28;20934;-48
2022/11/07 18:33:28;;;;;;;13.63;7.37;;;13.10;1.00;;;;;;4952360;28;20453;-47
2022/11/07 18:35:53;;;;;;;19.37;6.87;;;13.10;1.00;;;;;;4951821;28;20449;-49
2022/11/07 18:38:19;;;;;;;14.10;7.20;;;13.00;1.00;;;;;;4951333;28;20467;-48
2022/11/07 18:40:58;;;;;;;16.67;7.50;;;13.00;1.00;;;;;;4949850;28;20268;-48
2022/11/07 18:43:24;;;;;;;25.17;7.90;;;13.00;1.00;;;;;;4953211;28;20213;-48
2022/11/07 18:45:50;;;;;;;21.80;7.50;;;13.10;1.00;;;;;;4952985;28;20449;-48
2022/11/07 18:48:16;;;;;;;14.50;6.83;;;13.10;1.00;;;;;;4952951;28;20679;-48
2022/11/07 18:50:42;;;;;;;11.53;6.83;;;13.10;1.00;;;;;;4952734;28;20429;-48
2022/11/07 18:53:07;;;;;;;15.10;6.57;;;13.20;1.00;;;;;;4952772;28;20233;-48
2022/11/07 18:55:33;;;;;;;15.83;6.93;;;13.20;1.00;;;;;;4952766;28;20221;-48
2022/11/07 18:57:58;;;;;;;11.87;6.10;;;13.20;1.00;;;;;;4951673;29;20591;-48
2022/11/07 19:00:26;;;;;;;16.40;6.80;;;13.20;1.00;;;;;;4953032;28;20229;-48
2022/11/07 19:02:52;;;;;;;15.77;6.93;;;13.20;1.00;;;;;;4951863;28;20230;-48
2022/11/07 19:05:18;;;;;;;12.70;6.87;;;13.20;1.00;;;;;;4958638;28;20442;-47
2022/11/07 19:07:44;;;;;;;16.33;6.70;;;13.30;99.90;;;;;;4972010;28;20655;-48
2022/11/07 19:10:11;;;;;;;19.30;6.87;;;13.40;99.90;;;;;;4959751;28;20465;-48
2022/11/07 19:12:36;;;;;;;11.73;6.03;;;13.30;99.90;;;;;;4952849;28;20190;-48
2022/11/07 19:15:03;;;;;;;19.30;6.00;;;13.40;99.90;;;;;;4952901;28;20762;-47
2022/11/07 19:17:29;;;;;;;14.63;6.70;;;13.40;99.90;;;;;;4952807;28;20186;-48
2022/11/07 19:19:55;;;;;;;14.13;6.50;;;13.40;99.90;;;;;;4952697;28;20473;-48
2022/11/07 19:22:20;;;;;;;21.90;7.47;;;13.40;99.90;;;;;;4964583;28;20235;-48
2022/11/07 19:24:46;;;;;;;14.70;5.63;;;13.40;99.90;;;;;;4971933;28;20436;-48
2022/11/07 19:27:12;;;;;;;23.73;6.90;;;13.40;99.90;;;;;;4971848;28;20174;-48
2022/11/07 19:29:37;;;;;;;11.13;6.00;;;13.40;99.90;;;;;;4971792;28;20173;-48
2022/11/07 19:32:04;;;;;;;10.60;5.87;;;13.40;99.90;;;;;;4971761;28;20586;-47
2022/11/07 19:34:30;;;;;;;12.77;6.00;;;13.50;99.90;;;;;;4971770;28;20568;-47
2022/11/07 19:36:56;;;;;;;14.03;5.20;;;13.50;99.90;;;;;;4971641;28;20418;-48
2022/11/07 19:39:22;;;;;;;12.37;6.17;;;13.50;99.90;;;;;;4972210;28;20428;-48
2022/11/07 19:41:47;;;;;;;12.40;5.50;;;13.50;99.90;;;;;;4975392;28;20181;-49
2022/11/07 19:44:13;;;;;;;12.30;5.80;;;13.40;99.90;;;;;;4975471;28;20686;-47
2022/11/07 19:46:39;;;;;;;11.83;5.57;;;13.40;99.90;;;;;;4975298;28;20165;-48
2022/11/07 19:49:04;;;;;;;11.77;6.20;;;13.40;99.90;;;;;;4975271;28;20193;-49
2022/11/07 19:51:30;;;;;;;16.80;5.50;;;13.40;99.90;;;;;;4975307;28;20180;-48
2022/11/07 19:53:58;;;;;;;10.77;6.40;;;13.30;1.00;;;;;;4963705;28;20542;-48
2022/11/07 19:56:26;;;;;;;12.57;5.60;;;13.30;1.00;;;;;;4955987;28;20539;-48
2022/11/07 19:58:53;;;;;;;13.27;6.20;;;13.20;1.00;;;;;;4968007;28;20431;-48
2022/11/07 20:01:21;;;;;;;17.40;6.57;;;13.20;1.00;;;;;;4974847;28;21289;-47
2022/11/07 20:03:49;;;;;;;14.20;6.00;;;13.10;83.70;;;;;;4965146;28;20445;-47
2022/11/07 20:06:18;;;;;;;13.87;6.33;;;13.10;99.90;;;;;;4955491;28;20436;-48
2022/11/07 20:08:45;;;;;;;7.57;5.40;;;13.10;99.90;;;;;;4955650;28;20497;-48
2022/11/07 20:11:15;;;;;;;13.43;6.30;;;13.10;99.90;;;;;;4953700;28;20452;-48
2022/11/07 20:13:41;;;;;;;17.87;7.13;;;13.00;1.00;;;;;;4954733;28;20447;-48
2022/11/07 20:16:08;;;;;;;15.50;5.50;;;12.90;1.00;;;;;;4953785;28;20449;-48
2022/11/07 20:18:37;;;;;;;14.50;5.97;;;12.90;99.90;;;;;;4951872;28;20794;-48
2022/11/07 20:21:05;;;;;;;11.87;5.83;;;12.90;99.90;;;;;;4952199;28;20492;-50
2022/11/07 20:23:31;;;;;;;13.70;6.60;;;12.90;1.00;;;;;;4955154;28;20418;-48
2022/11/07 20:25:57;;;;;;;12.57;6.00;;;12.80;99.90;;;;;;4952630;28;20496;-49
2022/11/07 20:28:23;;;;;;;15.30;6.53;;;12.90;99.90;;;;;;4953525;28;20449;-48
2022/11/07 20:30:54;;;;;;;18.37;6.90;;;12.90;99.90;;;;;;4952928;28;20197;-48
2022/11/07 20:33:22;;;;;;;11.73;6.17;;;12.90;1.00;;;;;;4952680;28;20201;-48
2022/11/07 20:36:08;;;;;;;12.70;5.93;;;12.90;99.90;;;;;;4954512;28;20435;-48
2022/11/07 20:38:34;;;;;;;19.67;6.67;;;12.80;99.90;;;;;;4940511;29;20900;-48
2022/11/07 20:41:02;;;;;;;13.00;6.30;;;12.80;1.00;;;;;;4954887;28;20469;-48
2022/11/07 20:43:28;;;;;;;10.90;5.20;;;12.80;41.40;;;;;;4954189;29;20467;-48
2022/11/07 20:45:53;;;;;;;13.43;6.20;;;12.70;1.00;;;;;;4950323;28;20967;-48
2022/11/07 20:48:20;;;;;;;16.60;6.60;;;12.70;64.10;;;;;;4951833;28;20193;-48
2022/11/07 20:50:46;;;;;;;10.47;5.20;;;12.70;99.90;;;;;;4951121;28;20560;-48
2022/11/07 20:53:11;;;;;;;10.87;5.20;;;12.70;99.90;;;;;;4953611;28;20792;-48
2022/11/07 20:55:39;;;;;;;17.70;6.00;;;12.70;99.90;;;;;;4954238;28;20448;-48
2022/11/07 20:58:04;;;;;;;13.40;6.03;;;12.70;1.00;;;;;;4952911;28;20190;-48
2022/11/07 21:00:30;;;;;;;17.00;6.00;;;12.70;1.00;;;;;;4953753;28;20993;-48
2022/11/07 21:02:56;;;;;;;15.93;5.37;;;12.70;1.00;;;;;;4951148;28;20306;-48
2022/11/07 21:05:21;;;;;;;12.67;5.20;;;12.70;1.00;;;;;;4952429;28;20522;-48